Time;durP1;ratioP1;P1;durP2;ratioP2;P2;SDS_P1;SDS_P2;PMS_P1;PMS_P2;Temp;Humidity;BMP_temperature;BMP_pressure;BME280_temperature;BME280_humidity;BME280_pressure;Samples;Min_cycle;Max_cycle;Signal;HPM_P1;HPM_P2
2023/08/10 00:02:06;;;;;;;4.45;3.03;;;;;;;14.56;100.00;97007.09;4995505;28;20112;-68
2023/08/10 00:04:33;;;;;;;5.43;3.33;;;;;;;14.61;100.00;97011.47;5000188;28;20449;-68
2023/08/10 00:06:58;;;;;;;7.88;3.53;;;;;;;14.61;100.00;97012.25;5001285;28;20050;-69
2023/08/10 00:09:24;;;;;;;5.05;3.45;;;;;;;14.64;100.00;97016.19;4995544;28;20046;-69
2023/08/10 00:11:49;;;;;;;8.73;3.47;;;;;;;14.64;100.00;97010.69;5000726;28;20072;-66
2023/08/10 00:14:14;;;;;;;5.82;3.40;;;;;;;14.64;100.00;97013.44;4991080;28;20034;-67
2023/08/10 00:16:40;;;;;;;7.82;3.47;;;;;;;14.73;100.00;97005.66;4995780;28;20638;-69
2023/08/10 00:19:05;;;;;;;8.50;3.95;;;;;;;14.72;100.00;97004.06;4976148;28;20054;-69
2023/08/10 00:21:30;;;;;;;10.18;3.70;;;;;;;14.65;100.00;97010.31;4991595;28;20038;-68
2023/08/10 00:23:56;;;;;;;5.20;3.58;;;;;;;14.55;100.00;97008.28;5001627;28;20634;-68
2023/08/10 00:26:23;;;;;;;6.55;4.28;;;;;;;14.51;100.00;97005.50;4996267;28;20050;-68
2023/08/10 00:28:49;;;;;;;9.00;3.22;;;;;;;14.50;100.00;96995.63;5001866;28;20042;-69
2023/08/10 00:31:15;;;;;;;7.30;3.60;;;;;;;14.45;100.00;96987.72;4991303;28;20046;-69
2023/08/10 00:33:41;;;;;;;7.40;4.20;;;;;;;14.44;100.00;96988.91;4988696;28;20038;-68
2023/08/10 00:36:07;;;;;;;6.53;3.65;;;;;;;14.42;100.00;96993.22;4976527;28;20184;-69
2023/08/10 00:38:33;;;;;;;8.15;3.88;;;;;;;14.41;100.00;96981.41;4982038;28;20042;-69
2023/08/10 00:40:59;;;;;;;11.43;3.88;;;;;;;14.44;100.00;96985.34;4998849;28;20041;-69
2023/08/10 00:43:24;;;;;;;6.93;4.00;;;;;;;14.46;100.00;96983.81;4999752;28;20398;-69
2023/08/10 00:45:51;;;;;;;7.93;3.88;;;;;;;14.46;100.00;96988.53;5002748;28;20085;-69
2023/08/10 00:48:17;;;;;;;7.65;3.47;;;;;;;14.42;100.00;96985.75;5000285;28;20124;-68
2023/08/10 00:50:43;;;;;;;8.52;3.55;;;;;;;14.39;100.00;96985.75;5004745;28;20501;-69
2023/08/10 00:53:08;;;;;;;4.90;3.28;;;;;;;14.32;100.00;96992.78;4998618;28;20042;-69
2023/08/10 00:55:34;;;;;;;10.73;4.03;;;;;;;14.30;100.00;96989.63;5003659;28;20402;-69
2023/08/10 00:58:00;;;;;;;10.18;4.00;;;;;;;14.26;100.00;96986.06;5004193;28;20065;-67
2023/08/10 01:00:26;;;;;;;10.45;3.95;;;;;;;14.00;100.00;96989.81;4997924;28;20053;-67
2023/08/10 01:02:53;;;;;;;7.57;3.90;;;;;;;13.55;100.00;96978.81;5004652;28;20074;-68
2023/08/10 01:05:18;;;;;;;9.57;4.57;;;;;;;13.29;100.00;96984.41;4997748;28;20375;-66
2023/08/10 01:08:07;;;;;;;10.18;4.85;;;;;;;13.19;100.00;96981.19;5004696;28;20045;-69
2023/08/10 01:11:04;;;;;;;10.30;4.97;;;;;;;13.29;100.00;96987.97;5003022;28;20038;-68
2023/08/10 01:13:38;;;;;;;7.90;4.15;;;;;;;13.47;100.00;96984.63;5019996;28;20040;-68
2023/08/10 01:16:08;;;;;;;9.48;4.35;;;;;;;13.59;100.00;96987.09;5007240;28;20042;-71
2023/08/10 01:18:34;;;;;;;;;;;;;;;13.60;100.00;96991.44;4993838;28;20066;-67
2023/08/10 01:21:03;;;;;;;8.82;4.10;;;;;;;13.68;100.00;96990.31;4988276;28;19967;-67
2023/08/10 01:23:37;;;;;;;7.95;3.55;;;;;;;13.87;100.00;96992.06;5002003;28;20046;-69
2023/08/10 01:26:05;;;;;;;7.78;3.47;;;;;;;14.06;100.00;96985.53;5001896;28;20052;-68
2023/08/10 01:28:33;;;;;;;7.28;3.50;;;;;;;14.20;100.00;97003.31;5002492;28;20045;-69
2023/08/10 01:30:59;;;;;;;5.75;3.47;;;;;;;14.25;100.00;96998.25;5002975;28;20041;-69
2023/08/10 01:33:26;;;;;;;8.57;3.70;;;;;;;14.28;100.00;96994.72;4991155;28;20049;-67
2023/08/10 01:35:52;;;;;;;9.75;4.13;;;;;;;13.92;100.00;96999.19;5003896;28;20038;-68
2023/08/10 01:38:17;;;;;;;7.45;3.40;;;;;;;13.89;100.00;96997.19;4998827;28;20040;-68
2023/08/10 01:40:43;;;;;;;8.23;3.70;;;;;;;14.06;100.00;96996.56;4995986;28;20030;-69
2023/08/10 01:43:08;;;;;;;6.50;3.90;;;;;;;14.14;100.00;96995.41;4996305;28;20052;-68
2023/08/10 01:45:34;;;;;;;10.32;3.92;;;;;;;13.93;100.00;96998.78;5003076;28;20056;-68
2023/08/10 01:48:03;;;;;;;6.13;3.80;;;;;;;13.94;100.00;96997.63;5004105;28;20041;-68
2023/08/10 01:50:33;;;;;;;7.70;3.95;;;;;;;14.06;100.00;96995.75;4999807;28;20476;-69
2023/08/10 01:53:32;;;;;;;6.22;3.55;;;;;;;14.18;100.00;97003.69;5002477;28;20042;-69
2023/08/10 01:55:58;;;;;;;4.72;3.10;;;;;;;14.22;100.00;97000.97;4996626;28;20491;-69
2023/08/10 01:58:24;;;;;;;17.65;10.38;;;;;;;14.23;100.00;97005.31;4999650;28;20265;-68
2023/08/10 02:00:51;;;;;;;6.53;3.92;;;;;;;14.24;100.00;97009.63;5003284;28;20041;-68
2023/08/10 02:03:17;;;;;;;7.03;3.33;;;;;;;14.32;100.00;97011.28;4997981;28;20056;-69
2023/08/10 02:05:42;;;;;;;6.68;3.47;;;;;;;14.38;100.00;97009.72;5003931;28;20099;-69
2023/08/10 02:08:08;;;;;;;5.97;3.20;;;;;;;14.41;100.00;97005.44;4998932;28;20383;-67
2023/08/10 02:10:34;;;;;;;7.75;3.80;;;;;;;14.38;100.00;97001.47;5000399;28;20053;-69
2023/08/10 02:12:59;;;;;;;6.47;3.33;;;;;;;14.33;100.00;97002.63;5003130;28;20037;-69
2023/08/10 02:15:25;;;;;;;10.45;3.97;;;;;;;14.25;100.00;97005.72;4982888;28;20129;-70
2023/08/10 02:17:50;;;;;;;115.43;65.25;;;;;;;14.25;100.00;97002.97;5000025;28;20089;-69
2023/08/10 02:20:16;;;;;;;8.60;4.03;;;;;;;14.23;100.00;97003.34;4997353;28;20387;-69
2023/08/10 02:22:45;;;;;;;6.60;3.55;;;;;;;14.23;100.00;96997.06;4983066;28;20499;-69
2023/08/10 02:25:10;;;;;;;6.68;3.25;;;;;;;14.24;100.00;97004.94;4980238;28;20042;-68
2023/08/10 02:27:36;;;;;;;8.70;3.90;;;;;;;14.21;100.00;97004.91;4984745;28;20524;-69
2023/08/10 02:30:02;;;;;;;4.47;2.97;;;;;;;14.25;100.00;97014.78;4987774;28;20042;-66
2023/08/10 02:32:27;;;;;;;4.75;2.80;;;;;;;14.29;100.00;97010.06;5016032;28;20053;-68
2023/08/10 02:34:53;;;;;;;7.32;3.05;;;;;;;14.31;100.00;96999.47;5023624;28;20033;-69
2023/08/10 02:37:18;;;;;;;6.88;3.30;;;;;;;14.27;100.00;97003.38;5004450;28;20132;-69
2023/08/10 02:39:44;;;;;;;8.32;3.47;;;;;;;14.23;100.00;97010.81;4999189;28;20502;-69
2023/08/10 02:42:10;;;;;;;7.85;4.00;;;;;;;14.11;100.00;97009.94;4995490;28;20082;-68
2023/08/10 02:44:35;;;;;;;5.30;3.38;;;;;;;14.15;100.00;97015.47;4997835;28;20042;-70
2023/08/10 02:47:01;;;;;;;6.75;3.22;;;;;;;14.13;100.00;97015.88;4995988;28;20056;-70
2023/08/10 02:49:26;;;;;;;4.93;3.47;;;;;;;14.03;100.00;96999.28;4995219;28;20132;-71
2023/08/10 02:51:52;;;;;;;6.80;3.33;;;;;;;13.96;100.00;97009.03;5000813;28;20065;-71
2023/08/10 02:54:17;;;;;;;6.63;3.78;;;;;;;14.04;100.00;97003.59;4992307;28;20392;-71
2023/08/10 02:56:42;;;;;;;5.70;3.50;;;;;;;14.09;100.00;97009.53;4997199;28;20100;-71
2023/08/10 02:59:08;;;;;;;5.47;3.33;;;;;;;13.98;100.00;97007.88;4990886;28;20039;-68
2023/08/10 03:01:33;;;;;;;9.27;3.70;;;;;;;13.88;100.00;97014.88;4996369;28;20050;-67
2023/08/10 03:03:59;;;;;;;7.30;3.50;;;;;;;13.82;100.00;97008.94;4996483;28;20080;-69
2023/08/10 03:06:24;;;;;;;6.90;3.85;;;;;;;13.73;100.00;97020.25;4992199;28;20383;-69
2023/08/10 03:08:50;;;;;;;6.57;4.10;;;;;;;13.54;100.00;97009.44;4998448;28;20030;-68
2023/08/10 03:11:15;;;;;;;6.60;3.50;;;;;;;13.54;100.00;97012.19;4992266;28;20058;-70
2023/08/10 03:13:41;;;;;;;5.38;3.60;;;;;;;13.52;100.00;97018.13;5001612;28;20515;-67
2023/08/10 03:16:07;;;;;;;7.22;3.17;;;;;;;13.46;100.00;97021.56;4993268;28;20057;-68
2023/08/10 03:18:32;;;;;;;8.32;3.63;;;;;;;13.39;100.00;97025.03;5001369;28;20073;-68
2023/08/10 03:20:57;;;;;;;7.57;4.00;;;;;;;13.25;100.00;97025.63;4997403;28;20387;-69
2023/08/10 03:23:23;;;;;;;10.82;3.92;;;;;;;13.11;100.00;97018.03;4993933;28;20516;-69
2023/08/10 03:25:48;;;;;;;7.18;3.92;;;;;;;13.00;100.00;97026.16;5001752;28;20089;-70
2023/08/10 03:28:13;;;;;;;12.07;4.50;;;;;;;12.94;100.00;97021.34;4992739;28;20030;-70
2023/08/10 03:30:40;;;;;;;13.40;4.38;;;;;;;12.87;100.00;97026.75;4998441;28;20070;-69
2023/08/10 03:33:06;;;;;;;6.63;4.00;;;;;;;12.81;100.00;97021.59;4995641;28;20037;-72
2023/08/10 03:35:31;;;;;;;6.57;4.32;;;;;;;12.82;100.00;97030.66;5000379;28;20052;-68
2023/08/10 03:37:57;;;;;;;7.32;4.15;;;;;;;12.89;100.00;97039.00;4995114;28;20061;-68
2023/08/10 03:40:22;;;;;;;6.60;3.85;;;;;;;12.94;100.00;97035.09;5013730;28;20603;-68
2023/08/10 03:42:47;;;;;;;7.78;3.58;;;;;;;12.99;100.00;97034.78;5018273;28;20050;-68
2023/08/10 03:45:13;;;;;;;8.82;5.05;;;;;;;13.15;100.00;97034.56;4994306;28;20466;-69
2023/08/10 03:47:38;;;;;;;10.32;4.20;;;;;;;13.23;100.00;97036.22;4997934;28;20064;-70
2023/08/10 03:50:04;;;;;;;7.43;3.70;;;;;;;13.23;100.00;97033.47;4993341;28;20064;-69
2023/08/10 03:52:30;;;;;;;7.00;3.35;;;;;;;13.26;100.00;97032.72;4997573;28;20037;-68
2023/08/10 03:54:55;;;;;;;6.03;3.45;;;;;;;13.25;100.00;97035.84;4997192;28;20030;-68
2023/08/10 03:57:21;;;;;;;6.45;3.60;;;;;;;13.20;100.00;97037.00;4995375;28;20050;-69
2023/08/10 03:59:46;;;;;;;5.95;3.30;;;;;;;13.16;100.00;97047.97;4997294;28;20120;-71
2023/08/10 04:02:11;;;;;;;11.80;3.90;;;;;;;13.17;100.00;97044.03;4993049;28;20506;-69
2023/08/10 04:04:38;;;;;;;8.48;4.70;;;;;;;13.23;100.00;97043.69;4999825;28;20048;-69
2023/08/10 04:07:03;;;;;;;5.93;4.00;;;;;;;13.26;100.00;97043.72;4998936;28;20037;-70
2023/08/10 04:09:29;;;;;;;9.93;4.05;;;;;;;13.24;100.00;97037.03;4996804;28;20462;-69
2023/08/10 04:11:55;;;;;;;6.90;3.45;;;;;;;13.18;100.00;97037.38;4997173;28;20037;-69
2023/08/10 04:14:21;;;;;;;6.25;4.03;;;;;;;12.97;100.00;97037.13;4993705;28;20092;-69
2023/08/10 04:16:46;;;;;;;6.55;3.60;;;;;;;12.83;100.00;97043.22;4993093;28;20041;-69
2023/08/10 04:19:11;;;;;;;7.75;4.05;;;;;;;12.81;100.00;97040.84;4995650;28;20042;-68
2023/08/10 04:21:37;;;;;;;5.53;3.63;;;;;;;12.87;100.00;97044.03;4998305;28;20117;-69
2023/08/10 04:24:03;;;;;;;6.50;4.00;;;;;;;12.98;100.00;97050.50;4996282;28;20034;-70
2023/08/10 04:26:28;;;;;;;8.40;3.78;;;;;;;13.07;100.00;97052.16;4994902;28;20069;-69
2023/08/10 04:28:53;;;;;;;10.13;4.45;;;;;;;13.13;100.00;97050.66;4991019;28;20103;-69
2023/08/10 04:31:19;;;;;;;9.38;4.40;;;;;;;13.15;100.00;97048.31;4982922;28;20100;-70
2023/08/10 04:33:44;;;;;;;6.90;4.25;;;;;;;13.24;100.00;97059.81;5000747;28;20034;-69
2023/08/10 04:36:09;;;;;;;6.05;4.15;;;;;;;13.34;100.00;97058.38;4996971;28;20128;-68
2023/08/10 04:38:35;;;;;;;5.43;3.55;;;;;;;13.42;100.00;97057.31;5000707;28;20408;-69
2023/08/10 04:41:00;;;;;;;8.77;4.00;;;;;;;13.46;100.00;97057.34;5000188;28;20042;-69
2023/08/10 04:43:26;;;;;;;5.80;3.47;;;;;;;13.50;100.00;97056.19;4995625;28;20489;-69
2023/08/10 04:45:51;;;;;;;6.05;3.90;;;;;;;13.61;100.00;97058.28;4990206;28;20092;-68
2023/08/10 04:48:17;;;;;;;7.53;3.92;;;;;;;13.63;100.00;97059.50;4987179;28;20034;-69
2023/08/10 04:50:42;;;;;;;5.18;3.33;;;;;;;13.68;100.00;97055.59;4998962;28;20072;-69
2023/08/10 04:53:08;;;;;;;5.43;3.88;;;;;;;13.76;100.00;97062.75;4991713;28;20062;-67
2023/08/10 04:55:33;;;;;;;6.28;3.75;;;;;;;13.91;100.00;97061.72;4997727;28;20037;-68
2023/08/10 04:57:58;;;;;;;7.55;4.00;;;;;;;14.05;100.00;97060.28;4992508;28;20042;-69
2023/08/10 05:00:24;;;;;;;5.13;3.08;;;;;;;14.12;100.00;97057.56;4992653;28;20581;-69
2023/08/10 05:02:50;;;;;;;8.15;3.53;;;;;;;14.13;100.00;97059.13;4999451;28;20034;-69
2023/08/10 05:05:16;;;;;;;6.10;3.13;;;;;;;14.18;100.00;97060.75;4989039;28;20100;-70
2023/08/10 05:07:41;;;;;;;7.68;3.15;;;;;;;14.09;100.00;97061.88;4994938;28;20034;-69
2023/08/10 05:10:08;;;;;;;8.35;3.47;;;;;;;14.01;100.00;97065.75;4994426;28;20583;-70
2023/08/10 05:12:35;;;;;;;6.28;3.58;;;;;;;14.07;100.00;97057.91;4999610;28;20125;-69
2023/08/10 05:15:01;;;;;;;6.65;3.38;;;;;;;14.64;100.00;97065.81;4999318;28;20045;-69
2023/08/10 05:17:27;;;;;;;12.88;6.75;;;;;;;15.90;100.00;97069.09;4994059;28;20061;-70
2023/08/10 05:19:52;;;;;;;11.32;4.63;;;;;;;17.18;100.00;97078.47;4999250;28;20042;-68
2023/08/10 05:22:18;;;;;;;9.63;3.50;;;;;;;18.19;100.00;97075.16;4994139;28;20048;-69
2023/08/10 05:24:43;;;;;;;13.80;3.10;;;;;;;19.27;98.14;97084.00;4999893;28;20487;-69
2023/08/10 05:27:08;;;;;;;7.82;3.03;;;;;;;19.89;92.75;97083.25;4997985;28;20487;-69
2023/08/10 05:29:34;;;;;;;4.88;1.95;;;;;;;21.04;86.94;97093.28;4999283;28;20042;-69
2023/08/10 05:31:59;;;;;;;8.07;2.60;;;;;;;22.39;72.33;97107.56;5000752;28;20057;-69
2023/08/10 05:34:25;;;;;;;5.50;2.30;;;;;;;22.66;69.95;97112.09;4997944;28;20046;-69
2023/08/10 05:36:50;;;;;;;4.72;2.25;;;;;;;24.08;65.15;97108.59;5003501;28;20054;-69
2023/08/10 05:39:16;;;;;;;5.45;2.30;;;;;;;25.37;57.75;97114.75;4987072;28;20077;-69
2023/08/10 05:41:41;;;;;;;6.45;2.78;;;;;;;26.08;53.67;97116.94;4983429;28;20042;-68
2023/08/10 05:44:06;;;;;;;6.05;2.30;;;;;;;26.64;51.69;97122.78;4978215;28;20046;-68
2023/08/10 05:46:32;;;;;;;4.53;2.17;;;;;;;26.91;50.08;97122.06;4982976;28;20081;-70
2023/08/10 05:48:57;;;;;;;4.80;2.50;;;;;;;27.34;49.58;97128.69;4984194;28;20038;-69
2023/08/10 05:51:23;;;;;;;5.07;2.60;;;;;;;27.69;47.95;97128.31;4980043;28;20227;-70
2023/08/10 05:53:48;;;;;;;8.35;3.28;;;;;;;27.99;46.97;97132.19;4983531;28;20034;-70
2023/08/10 05:56:13;;;;;;;9.93;3.38;;;;;;;28.61;45.52;97132.91;4978504;28;20068;-69
2023/08/10 05:58:39;;;;;;;17.65;4.47;;;;;;;28.66;44.53;97126.63;4988718;28;20046;-69
2023/08/10 06:01:05;;;;;;;15.70;4.60;;;;;;;28.40;45.37;97132.69;4997942;28;20549;-71
2023/08/10 06:03:30;;;;;;;8.13;3.20;;;;;;;28.21;45.69;97131.97;4995684;28;20046;-69
2023/08/10 06:05:55;;;;;;;7.75;3.28;;;;;;;28.26;45.60;97136.19;4982927;28;20042;-69
2023/08/10 06:08:22;;;;;;;6.47;2.90;;;;;;;28.59;44.64;97141.88;4978951;28;20124;-70
2023/08/10 06:10:50;;;;;;;6.47;3.20;;;;;;;28.92;44.32;97145.91;4983295;28;20085;-69
2023/08/10 06:13:18;;;;;;;7.95;3.92;;;;;;;28.81;43.88;97148.47;4990465;28;20053;-69
2023/08/10 06:15:45;;;;;;;7.40;3.25;;;;;;;28.48;44.86;97141.56;4985719;28;20550;-70
2023/08/10 06:18:10;;;;;;;5.80;3.22;;;;;;;28.68;44.15;97143.06;4977845;28;20046;-69
2023/08/10 06:20:36;;;;;;;6.07;3.22;;;;;;;28.34;43.86;97139.41;4984778;28;20042;-67
2023/08/10 06:23:02;;;;;;;7.15;3.22;;;;;;;29.22;43.38;97146.03;5003575;28;20045;-69
2023/08/10 06:25:28;;;;;;;6.45;3.08;;;;;;;30.05;41.69;97151.72;4999388;28;20042;-68
2023/08/10 06:27:54;;;;;;;5.47;2.80;;;;;;;28.61;44.18;97149.81;5003591;28;20057;-69
2023/08/10 06:30:19;;;;;;;6.57;2.90;;;;;;;29.42;43.12;97151.81;4998926;28;20527;-69
2023/08/10 06:32:45;;;;;;;6.40;2.83;;;;;;;29.08;42.01;97158.78;4995040;28;20042;-68
2023/08/10 06:35:10;;;;;;;4.05;2.55;;;;;;;29.59;41.90;97148.56;4978561;28;20678;-71
2023/08/10 06:37:37;;;;;;;4.70;2.95;;;;;;;30.76;40.66;97165.97;4986969;28;20050;-70
2023/08/10 06:40:08;;;;;;;4.30;2.47;;;;;;;30.78;38.59;97160.59;4986105;28;20050;-71
2023/08/10 06:42:34;;;;;;;6.15;2.47;;;;;;;29.72;41.62;97158.28;4987416;28;20118;-70
2023/08/10 06:45:00;;;;;;;6.88;2.80;;;;;;;30.28;40.39;97169.81;4983654;28;20039;-70
2023/08/10 06:47:25;;;;;;;4.03;2.25;;;;;;;31.41;38.56;97173.53;4976050;28;20612;-69
2023/08/10 06:49:51;;;;;;;5.63;3.78;;;;;;;32.38;36.51;97173.28;4983412;28;20046;-69
2023/08/10 06:52:16;;;;;;;5.10;2.65;;;;;;;32.22;34.82;97180.34;4978886;28;20046;-69
2023/08/10 06:54:41;;;;;;;5.63;2.45;;;;;;;31.96;36.50;97175.44;4994167;28;20038;-69
2023/08/10 06:57:07;;;;;;;5.80;2.53;;;;;;;32.86;35.09;97178.28;4978909;28;20117;-68
2023/08/10 06:59:32;;;;;;;4.40;2.75;;;;;;;33.03;34.70;97180.44;4999916;28;20463;-69
2023/08/10 07:01:58;;;;;;;4.15;2.38;;;;;;;33.00;34.80;97175.78;4996447;28;20062;-70
2023/08/10 07:04:24;;;;;;;5.35;2.80;;;;;;;32.32;35.51;97176.06;4979251;28;20042;-70
2023/08/10 07:06:49;;;;;;;5.45;2.80;;;;;;;29.98;39.40;97171.91;4983752;28;20577;-70
2023/08/10 07:09:15;;;;;;;4.85;2.65;;;;;;;30.09;40.77;97171.31;4978498;28;20050;-70
2023/08/10 07:11:41;;;;;;;5.60;2.53;;;;;;;30.60;39.00;97170.09;4981207;28;20096;-70
2023/08/10 07:14:06;;;;;;;6.38;3.28;;;;;;;31.36;37.43;97177.84;4976328;28;20038;-70
2023/08/10 07:16:32;;;;;;;4.43;2.60;;;;;;;31.95;36.81;97182.38;4991569;28;20066;-69
2023/08/10 07:18:58;;;;;;;6.93;2.65;;;;;;;31.95;36.13;97179.56;4982747;28;20180;-69
2023/08/10 07:21:23;;;;;;;6.22;2.75;;;;;;;31.46;36.80;97186.97;4986518;28;20045;-69
2023/08/10 07:23:48;;;;;;;6.03;2.60;;;;;;;31.25;36.75;97178.47;5001923;28;20042;-69
2023/08/10 07:26:14;;;;;;;6.47;3.00;;;;;;;31.27;36.41;97182.88;4998200;28;20394;-70
2023/08/10 07:28:39;;;;;;;3.65;2.05;;;;;;;31.38;37.28;97174.50;5001242;28;20122;-69
2023/08/10 07:31:05;;;;;;;3.47;2.35;;;;;;;31.49;36.80;97176.72;4997972;28;20046;-71
2023/08/10 07:33:30;;;;;;;6.38;2.60;;;;;;;31.66;36.97;97180.53;4995830;28;20042;-69
2023/08/10 07:35:56;;;;;;;6.05;2.40;;;;;;;31.81;36.74;97175.53;4999171;28;20667;-69
2023/08/10 07:38:21;;;;;;;4.22;2.47;;;;;;;31.77;36.66;97182.72;4991917;28;20384;-69
2023/08/10 07:40:47;;;;;;;5.72;2.88;;;;;;;31.33;37.11;97176.03;4983721;28;20039;-70
2023/08/10 07:43:13;;;;;;;5.00;2.30;;;;;;;30.73;38.06;97181.06;4984844;28;20511;-69
2023/08/10 07:45:38;;;;;;;9.75;2.97;;;;;;;28.63;42.02;97167.03;4992735;28;20066;-69
2023/08/10 07:48:04;;;;;;;5.43;2.67;;;;;;;28.87;41.49;97169.88;4980173;28;20066;-69
2023/08/10 07:50:31;;;;;;;4.32;2.53;;;;;;;28.02;43.77;97161.44;4982631;28;20104;-69
2023/08/10 07:52:56;;;;;;;5.55;2.70;;;;;;;24.75;50.49;97158.06;4996821;28;20555;-68
2023/08/10 07:55:22;;;;;;;7.40;3.38;;;;;;;24.73;51.31;97154.19;4978666;28;20121;-68
2023/08/10 07:57:48;;;;;;;5.32;2.78;;;;;;;27.06;47.24;97153.16;4998725;28;20104;-69
2023/08/10 08:00:14;;;;;;;5.20;3.05;;;;;;;25.71;49.96;97153.19;4974824;28;20451;-70
2023/08/10 08:02:40;;;;;;;6.13;2.97;;;;;;;25.06;53.27;97145.47;4992564;28;20037;-70
2023/08/10 08:05:06;;;;;;;5.63;2.47;;;;;;;26.48;50.44;97163.91;4997111;28;20045;-69
2023/08/10 08:07:32;;;;;;;5.28;2.63;;;;;;;29.32;42.82;97168.03;5000917;28;20117;-70
2023/08/10 08:09:58;;;;;;;5.95;2.10;;;;;;;30.12;40.05;97178.78;4999651;28;20517;-69
2023/08/10 08:12:25;;;;;;;6.72;2.58;;;;;;;29.74;39.96;97186.84;4997588;28;20127;-68
2023/08/10 08:14:51;;;;;;;5.00;2.97;;;;;;;25.80;49.26;97174.88;4991863;28;20066;-69
2023/08/10 08:17:16;;;;;;;7.88;2.65;;;;;;;25.60;53.19;97177.25;4977722;28;20176;-69
2023/08/10 08:19:42;;;;;;;4.90;2.80;;;;;;;25.91;54.21;97168.88;4983131;28;20049;-68
2023/08/10 08:22:07;;;;;;;5.07;3.00;;;;;;;25.80;53.51;97169.28;4993877;28;20045;-67
2023/08/10 08:24:32;;;;;;;9.48;3.78;;;;;;;25.48;54.99;97164.84;5005368;28;20557;-67
2023/08/10 08:26:58;;;;;;;6.47;3.55;;;;;;;25.22;56.36;97159.31;5000893;28;20398;-69
2023/08/10 08:29:23;;;;;;;9.93;3.25;;;;;;;25.65;55.56;97160.63;4995120;28;20520;-69
2023/08/10 08:31:49;;;;;;;6.07;3.40;;;;;;;25.10;57.55;97160.13;5001021;28;20045;-69
2023/08/10 08:34:15;;;;;;;5.80;3.50;;;;;;;25.41;57.80;97154.69;4996553;28;20044;-68
2023/08/10 08:36:40;;;;;;;6.40;3.70;;;;;;;25.63;57.11;97148.31;4992429;28;20378;-70
2023/08/10 08:39:06;;;;;;;9.70;3.45;;;;;;;25.56;56.94;97158.53;4996426;28;20045;-70
2023/08/10 08:41:37;;;;;;;6.72;3.22;;;;;;;26.13;56.01;97154.88;5000219;28;20070;-69
2023/08/10 08:44:06;;;;;;;6.53;3.30;;;;;;;26.06;55.58;97149.53;5000465;28;20231;-69
2023/08/10 08:46:33;;;;;;;6.38;3.50;;;;;;;25.41;58.45;97142.66;4998077;28;20053;-69
2023/08/10 08:49:01;;;;;;;6.65;3.53;;;;;;;26.09;56.31;97145.78;5000478;28;20146;-70
2023/08/10 08:51:27;;;;;;;5.38;3.22;;;;;;;26.96;53.83;97148.78;4992427;28;20116;-69
2023/08/10 08:53:53;;;;;;;6.40;3.22;;;;;;;27.35;51.18;97147.13;4994080;28;20050;-69
2023/08/10 08:56:19;;;;;;;7.55;3.33;;;;;;;26.46;51.68;97149.53;4992181;28;20638;-70
2023/08/10 08:58:44;;;;;;;5.97;3.63;;;;;;;25.92;54.54;97134.75;4985861;28;20037;-69
2023/08/10 09:01:12;;;;;;;7.07;3.38;;;;;;;27.99;50.73;97139.88;4978810;28;20034;-70
2023/08/10 09:03:38;;;;;;;8.27;4.20;;;;;;;28.98;47.59;97143.97;5005758;28;20510;-70
2023/08/10 09:06:04;;;;;;;8.35;3.50;;;;;;;29.08;44.78;97151.13;5000500;28;20494;-72
2023/08/10 09:08:30;;;;;;;5.88;3.20;;;;;;;28.68;45.45;97149.47;5004694;28;20042;-69
2023/08/10 09:10:56;;;;;;;8.07;3.40;;;;;;;29.06;45.00;97152.84;5005309;28;20042;-70
2023/08/10 09:13:22;;;;;;;8.85;3.20;;;;;;;27.37;49.62;97147.44;5003996;28;20378;-70
2023/08/10 09:16:08;;;;;;;6.05;3.15;;;;;;;29.01;46.97;97143.03;5004115;28;20057;-68
2023/08/10 09:18:36;;;;;;;6.75;3.03;;;;;;;30.38;43.92;97149.94;5003015;28;20038;-68
2023/08/10 09:21:23;;;;;;;6.68;3.33;;;;;;;29.35;45.19;97147.34;4988493;28;20125;-68
2023/08/10 09:23:53;;;;;;;5.65;3.00;;;;;;;29.32;44.81;97141.88;4984069;28;20038;-67
2023/08/10 09:26:20;;;;;;;6.25;3.05;;;;;;;29.28;45.03;97144.09;4977759;28;20041;-68
2023/08/10 09:28:47;;;;;;;6.22;3.15;;;;;;;28.53;46.22;97138.13;4983493;28;20043;-69
2023/08/10 09:31:13;;;;;;;5.50;3.10;;;;;;;27.11;49.47;97132.06;4978390;28;20043;-69
2023/08/10 09:33:39;;;;;;;4.70;2.90;;;;;;;28.01;47.72;97126.09;4984035;28;20518;-70
2023/08/10 09:36:06;;;;;;;5.43;3.20;;;;;;;28.25;47.19;97128.97;4990597;28;20039;-71
2023/08/10 09:38:32;;;;;;;5.47;3.38;;;;;;;28.36;47.78;97120.81;5003360;28;20048;-69
2023/08/10 09:41:12;;;;;;;4.65;3.08;;;;;;;28.90;45.23;97132.28;5002812;28;20045;-68
2023/08/10 09:43:44;;;;;;;6.47;3.13;;;;;;;29.77;44.38;97119.41;5003597;28;20439;-68
2023/08/10 09:46:12;;;;;;;6.82;3.05;;;;;;;30.01;43.40;97125.72;4998097;28;20487;-67
2023/08/10 09:48:44;;;;;;;4.70;2.63;;;;;;;29.55;43.39;97121.31;4997861;28;20100;-68
2023/08/10 09:51:11;;;;;;;3.88;2.53;;;;;;;29.67;44.48;97116.63;4997155;28;20041;-69
2023/08/10 09:53:37;;;;;;;7.68;2.97;;;;;;;29.03;43.55;97122.78;5003022;28;20040;-68
2023/08/10 09:56:07;;;;;;;7.70;2.88;;;;;;;28.86;44.67;97122.44;5000177;28;20041;-75
2023/08/10 09:58:36;;;;;;;5.38;3.00;;;;;;;29.16;45.29;97112.84;5005881;28;20038;-69
2023/08/10 10:01:02;;;;;;;;;;;;;;;29.74;42.55;97110.63;5006438;28;20037;-73
2023/08/10 10:03:29;;;;;;;5.53;2.78;;;;;;;29.37;44.17;97110.19;4995480;28;19917;-69
2023/08/10 10:05:55;;;;;;;4.57;2.45;;;;;;;29.41;43.21;97107.94;5000601;28;20376;-70
2023/08/10 10:08:25;;;;;;;4.53;2.72;;;;;;;28.74;44.48;97105.28;4998463;28;20042;-70
2023/08/10 10:10:50;;;;;;;5.45;3.05;;;;;;;27.29;48.24;97109.59;4996892;28;20438;-70
2023/08/10 10:13:16;;;;;;;9.63;3.30;;;;;;;27.48;46.49;97115.22;4996845;28;20040;-69
2023/08/10 10:15:43;;;;;;;4.60;2.60;;;;;;;26.69;45.42;97116.56;4964057;28;20050;-67
2023/08/10 10:18:10;;;;;;;5.05;2.60;;;;;;;26.77;49.05;97100.94;4997606;28;20438;-67
2023/08/10 10:20:38;;;;;;;5.25;3.00;;;;;;;26.80;47.99;97099.25;4996779;28;20053;-72
2023/08/10 10:23:04;;;;;;;5.10;2.72;;;;;;;25.74;49.96;97098.19;4976646;28;20112;-73
2023/08/10 10:25:30;;;;;;;6.43;2.90;;;;;;;26.48;49.94;97090.09;4972150;28;20141;-68
2023/08/10 10:27:56;;;;;;;9.35;3.83;;;;;;;25.96;53.15;97086.94;4984292;28;20042;-70
2023/08/10 10:30:26;;;;;;;6.57;3.60;;;;;;;26.09;52.68;97084.03;4975539;28;20623;-70
2023/08/10 10:32:51;;;;;;;5.53;3.60;;;;;;;26.36;52.56;97086.16;4984340;28;20045;-70
2023/08/10 10:35:23;;;;;;;13.25;6.05;;;;;;;26.87;50.96;97080.06;4984442;28;20034;-69
2023/08/10 10:37:56;;;;;;;7.50;3.45;;;;;;;26.81;51.17;97069.91;4992246;28;20042;-72
2023/08/10 10:40:23;;;;;;;8.15;4.25;;;;;;;26.55;51.21;97063.75;4989895;28;20038;-70
2023/08/10 10:43:06;;;;;;;7.03;3.45;;;;;;;27.02;50.88;97066.16;4993885;28;20057;-74
2023/08/10 10:45:38;;;;;;;10.57;4.50;;;;;;;27.02;50.51;97063.34;4982275;28;20487;-70
2023/08/10 10:48:05;;;;;;;8.45;3.20;;;;;;;27.01;50.08;97061.00;4975746;28;20368;-73
2023/08/10 10:50:32;;;;;;;6.65;3.58;;;;;;;26.88;49.25;97061.16;4984006;28;20038;-69
2023/08/10 10:52:58;;;;;;;6.45;3.10;;;;;;;26.65;48.99;97056.91;4983375;28;20046;-68
2023/08/10 10:55:26;;;;;;;5.40;2.78;;;;;;;27.00;50.24;97059.47;4976547;28;20121;-69
2023/08/10 10:57:52;;;;;;;10.65;3.15;;;;;;;26.38;50.03;97057.63;4986668;28;20050;-68
2023/08/10 11:00:20;;;;;;;6.22;2.97;;;;;;;26.40;51.27;97058.72;4991509;28;20038;-68
2023/08/10 11:02:46;;;;;;;4.78;2.90;;;;;;;26.57;50.41;97047.22;5001742;28;20038;-69
2023/08/10 11:05:13;;;;;;;5.40;2.90;;;;;;;26.11;49.43;97048.66;4994780;28;20038;-68
2023/08/10 11:07:50;;;;;;;4.32;2.40;;;;;;;26.17;49.29;97040.41;4999996;28;20042;-69
2023/08/10 11:10:20;;;;;;;3.97;2.28;;;;;;;26.33;50.01;97040.13;4992500;28;20077;-69
2023/08/10 11:12:50;;;;;;;4.68;2.25;;;;;;;26.12;50.78;97035.41;5001221;28;20133;-71
2023/08/10 11:15:17;;;;;;;5.15;2.85;;;;;;;26.17;50.61;97032.00;4982855;28;20035;-69
2023/08/10 11:17:48;;;;;;;8.73;2.65;;;;;;;25.97;50.81;97034.44;4983154;28;20072;-68
2023/08/10 11:20:17;;;;;;;5.32;2.78;;;;;;;25.98;51.73;97021.94;4958829;28;20101;-68
2023/08/10 11:22:43;;;;;;;5.20;2.60;;;;;;;26.28;51.05;97023.91;5000849;28;20088;-69
2023/08/10 11:25:16;;;;;;;6.13;2.85;;;;;;;26.48;49.58;97029.09;4997007;28;20041;-68
2023/08/10 11:27:47;;;;;;;7.85;2.55;;;;;;;26.32;48.26;97038.56;5001894;28;20041;-71